Terminal Aerodrome Forecast
Issued by NWS Cleveland, OH

Home | Current Version | Previous Version | Graphics & Text | Print | Product List | Glossary Off
Versions: 1 2 3 4 5 6 7 8 9 10 11 12 13 14 15 16 17

000
FTUS41 KCLE 032103 AAA
TAFCAK
TAF AMD
KCAK 032103Z 0321/0418 28010KT P6SM BKN045
     FM040000 28006KT P6SM FEW045
     FM041500 27010KT P6SM SCT050=

USA.gov is the U.S. government's official web portal to all federal, state and local government web resources and services.